Time;durP1;ratioP1;P1;durP2;ratioP2;P2;SDS_P1;SDS_P2;PMS_P1;PMS_P2;Temp;Humidity;BMP_temperature;BMP_pressure;BME280_temperature;BME280_humidity;BME280_pressure;Samples;Min_cycle;Max_cycle;Signal;HPM_P1;HPM_P2
2022/10/16 00:01:17;;;;;;;7.20;5.65;;;23.40;47.30;;;;;;4972529;28;20043;-60
2022/10/16 00:03:45;;;;;;;8.77;6.63;;;23.40;47.40;;;;;;4968057;28;20451;-60
2022/10/16 00:06:13;;;;;;;7.15;5.65;;;23.40;47.40;;;;;;4971456;28;20631;-60
2022/10/16 00:08:41;;;;;;;7.43;5.97;;;23.30;47.30;;;;;;4971686;28;20495;-60
2022/10/16 00:11:17;;;;;;;9.17;6.47;;;23.30;47.30;;;;;;4973115;28;20051;-60
2022/10/16 00:13:46;;;;;;;8.80;6.47;;;23.30;47.30;;;;;;4973021;28;20065;-60
2022/10/16 00:16:14;;;;;;;7.10;5.85;;;23.30;47.30;;;;;;4972240;28;20070;-60
2022/10/16 00:18:41;;;;;;;8.65;6.03;;;23.30;47.40;;;;;;4973268;28;20046;-60
2022/10/16 00:21:15;;;;;;;8.00;6.28;;;23.30;47.40;;;;;;4971362;28;20053;-60
2022/10/16 00:23:42;;;;;;;6.40;5.60;;;23.30;47.40;;;;;;4972758;28;20053;-60
2022/10/16 00:26:13;;;;;;;8.70;6.80;;;23.30;47.40;;;;;;4972700;28;20054;-60
2022/10/16 00:28:41;;;;;;;7.55;6.05;;;23.30;47.40;;;;;;4972391;28;20046;-60
2022/10/16 00:31:10;;;;;;;7.35;6.05;;;23.30;47.40;;;;;;4972985;28;20051;-60
2022/10/16 00:33:39;;;;;;;7.18;5.82;;;23.30;47.50;;;;;;4971685;28;20530;-60
2022/10/16 00:36:09;;;;;;;8.48;6.57;;;23.30;47.50;;;;;;4968044;28;20054;-60
2022/10/16 00:38:37;;;;;;;;;;;23.30;47.50;;;;;;4972872;28;20351;-60
2022/10/16 00:41:06;;;;;;;6.72;5.43;;;23.20;47.40;;;;;;4972315;28;19933;-60
2022/10/16 00:43:54;;;;;;;7.82;5.60;;;23.30;48.10;;;;;;4973289;28;20047;-60
2022/10/16 00:46:28;;;;;;;7.20;5.63;;;23.30;47.50;;;;;;4971060;28;20240;-60
2022/10/16 00:49:05;;;;;;;9.35;6.13;;;23.30;47.50;;;;;;4972560;28;20054;-60
2022/10/16 00:51:46;;;;;;;8.13;5.40;;;23.30;47.60;;;;;;4970652;28;20043;-60
2022/10/16 00:54:27;;;;;;;7.75;6.20;;;23.20;47.50;;;;;;4971826;28;20055;-60
2022/10/16 00:56:57;;;;;;;8.30;6.30;;;23.20;47.50;;;;;;4970910;28;20055;-60
2022/10/16 00:59:28;;;;;;;8.20;6.13;;;23.20;47.50;;;;;;4971917;28;20522;-60
2022/10/16 01:01:56;;;;;;;6.72;5.60;;;23.20;47.60;;;;;;4972700;28;20049;-60
2022/10/16 01:04:25;;;;;;;7.38;5.72;;;23.20;47.60;;;;;;4971413;28;20057;-60
2022/10/16 01:07:08;;;;;;;9.95;6.20;;;23.30;47.60;;;;;;4970523;28;20046;-60
2022/10/16 01:10:02;;;;;;;8.43;5.55;;;23.20;47.70;;;;;;4971901;28;20258;-60
2022/10/16 01:12:44;;;;;;;8.02;5.53;;;23.20;47.70;;;;;;4972003;28;20054;-60
2022/10/16 01:15:29;;;;;;;7.13;5.80;;;23.20;47.70;;;;;;4972191;28;20087;-61
2022/10/16 01:18:19;;;;;;;6.97;6.05;;;23.20;47.70;;;;;;4971860;28;20492;-60
2022/10/16 01:20:54;;;;;;;8.13;5.75;;;23.20;47.60;;;;;;4971687;28;20066;-60
2022/10/16 01:23:36;;;;;;;6.85;5.47;;;23.20;47.60;;;;;;4971566;28;20039;-60
2022/10/16 01:26:24;;;;;;;8.90;5.97;;;23.20;47.60;;;;;;4972001;28;20050;-60
2022/10/16 01:29:10;;;;;;;7.13;5.60;;;23.20;47.60;;;;;;4970976;28;20047;-60
2022/10/16 01:31:41;;;;;;;7.15;5.63;;;23.20;47.60;;;;;;4970835;28;20150;-60
2022/10/16 01:34:16;;;;;;;6.72;4.93;;;23.20;47.60;;;;;;4971485;28;20708;-60
2022/10/16 01:36:56;;;;;;;8.38;5.32;;;23.20;47.60;;;;;;4971736;28;20440;-60
2022/10/16 01:39:32;;;;;;;6.60;5.45;;;23.20;47.60;;;;;;4969961;28;20073;-60
2022/10/16 01:42:10;;;;;;;7.03;5.15;;;23.20;47.60;;;;;;4968937;28;20054;-60
2022/10/16 01:44:38;;;;;;;6.43;5.15;;;23.20;47.60;;;;;;4959534;28;20067;-60
2022/10/16 01:47:09;;;;;;;7.50;5.72;;;23.20;47.60;;;;;;4951365;28;20078;-60
2022/10/16 01:49:38;;;;;;;7.25;5.68;;;23.20;47.60;;;;;;4951975;28;20047;-60
2022/10/16 01:52:15;;;;;;;7.53;5.68;;;23.20;47.60;;;;;;4950610;29;20051;-60
2022/10/16 01:54:46;;;;;;;6.63;5.35;;;23.20;47.60;;;;;;4952137;28;20059;-60
2022/10/16 01:57:15;;;;;;;5.55;5.00;;;23.20;47.60;;;;;;4952148;28;20059;-60
2022/10/16 01:59:47;;;;;;;6.97;5.00;;;23.20;47.60;;;;;;4951903;28;20051;-60
2022/10/16 02:02:16;;;;;;;6.80;5.13;;;23.10;47.60;;;;;;4951728;28;20055;-60
2022/10/16 02:04:54;;;;;;;6.28;5.20;;;23.10;47.60;;;;;;4952054;28;20055;-60
2022/10/16 02:07:22;;;;;;;6.35;4.80;;;23.10;47.60;;;;;;4951672;28;20407;-61
2022/10/16 02:09:49;;;;;;;6.82;5.10;;;23.10;47.60;;;;;;4951270;28;20047;-60
2022/10/16 02:12:30;;;;;;;6.25;4.68;;;23.20;47.70;;;;;;4949929;28;20053;-60
2022/10/16 02:14:57;;;;;;;6.85;5.22;;;23.10;47.70;;;;;;4950725;28;20051;-59
2022/10/16 02:17:25;;;;;;;7.05;5.25;;;23.10;47.70;;;;;;4953019;28;20055;-60
2022/10/16 02:19:55;;;;;;;6.10;5.05;;;23.10;47.70;;;;;;4970473;28;20051;-60
2022/10/16 02:22:25;;;;;;;;;;;23.20;47.70;;;;;;4970653;28;20442;-59
2022/10/16 02:25:04;;;;;;;8.43;5.20;;;23.10;47.70;;;;;;4985361;28;19949;-60
2022/10/16 02:28:06;;;;;;;6.75;5.47;;;23.10;47.70;;;;;;4970261;28;20070;-60
2022/10/16 02:30:39;;;;;;;5.50;4.57;;;23.10;47.70;;;;;;4970335;28;20042;-60
2022/10/16 02:33:09;;;;;;;7.60;5.10;;;23.10;47.70;;;;;;4970253;28;20483;-60
2022/10/16 02:35:37;;;;;;;6.10;4.97;;;23.10;47.80;;;;;;4970463;28;20486;-60
2022/10/16 02:38:06;;;;;;;5.82;4.57;;;23.10;47.70;;;;;;4970105;28;20058;-60
2022/10/16 02:40:33;;;;;;;5.47;4.82;;;23.10;47.80;;;;;;4969973;28;20047;-60
2022/10/16 02:43:03;;;;;;;5.88;4.75;;;23.10;47.80;;;;;;4970895;28;20057;-60
2022/10/16 02:45:31;;;;;;;5.10;4.50;;;23.10;47.80;;;;;;4965792;28;20400;-60
2022/10/16 02:47:58;;;;;;;6.70;4.80;;;23.10;47.80;;;;;;4970545;28;20053;-60
2022/10/16 02:50:25;;;;;;;5.70;4.90;;;23.10;47.80;;;;;;4970177;28;20051;-60
2022/10/16 02:52:52;;;;;;;7.85;5.10;;;23.00;47.70;;;;;;4970060;28;20057;-60
2022/10/16 02:55:19;;;;;;;7.43;4.88;;;23.10;47.70;;;;;;4969932;28;20522;-60
2022/10/16 02:57:46;;;;;;;6.22;4.93;;;23.10;47.70;;;;;;4970137;28;20047;-60
2022/10/16 03:00:15;;;;;;;6.85;5.00;;;23.10;47.70;;;;;;4969606;28;20066;-60
2022/10/16 03:02:43;;;;;;;6.45;4.65;;;23.10;47.70;;;;;;4968852;28;20355;-60
2022/10/16 03:05:10;;;;;;;6.03;4.35;;;23.10;47.70;;;;;;4969712;28;20426;-60
2022/10/16 03:07:37;;;;;;;4.93;4.38;;;23.10;47.70;;;;;;4969965;28;20054;-60
2022/10/16 03:10:05;;;;;;;5.50;4.95;;;23.10;47.70;;;;;;4969603;28;20050;-60
2022/10/16 03:12:33;;;;;;;5.32;4.47;;;23.10;47.70;;;;;;4970275;28;20055;-61
2022/10/16 03:15:00;;;;;;;4.97;4.18;;;23.10;47.70;;;;;;4969551;28;20073;-60
2022/10/16 03:17:27;;;;;;;4.60;4.20;;;23.10;47.70;;;;;;4965728;28;20379;-60
2022/10/16 03:19:55;;;;;;;5.65;4.70;;;23.10;47.70;;;;;;4968843;28;20084;-60
2022/10/16 03:22:22;;;;;;;6.78;4.72;;;23.10;47.70;;;;;;4969688;28;20484;-60
2022/10/16 03:24:49;;;;;;;5.30;4.40;;;23.10;47.70;;;;;;4969250;28;20054;-60
2022/10/16 03:27:16;;;;;;;7.05;5.03;;;23.10;47.70;;;;;;4969051;28;20053;-60
2022/10/16 03:29:43;;;;;;;5.00;4.50;;;23.10;47.70;;;;;;4969126;28;20051;-60
2022/10/16 03:32:10;;;;;;;5.07;4.28;;;23.10;47.70;;;;;;4969603;28;20058;-60
2022/10/16 03:34:38;;;;;;;4.95;4.32;;;23.10;47.70;;;;;;4969172;28;20415;-60
2022/10/16 03:37:05;;;;;;;4.93;4.28;;;23.10;47.70;;;;;;4968572;28;20063;-60
2022/10/16 03:39:32;;;;;;;7.25;4.68;;;23.10;47.70;;;;;;4969151;28;20400;-60
2022/10/16 03:41:59;;;;;;;5.05;4.30;;;23.00;47.70;;;;;;4969338;28;20058;-60
2022/10/16 03:44:26;;;;;;;5.72;4.72;;;23.00;47.70;;;;;;4969362;28;20054;-60
2022/10/16 03:46:53;;;;;;;5.55;4.10;;;23.00;47.70;;;;;;4969777;28;20062;-60
2022/10/16 03:49:20;;;;;;;6.10;4.78;;;23.00;47.70;;;;;;4965010;28;20078;-60
2022/10/16 03:51:47;;;;;;;4.32;3.92;;;23.00;47.70;;;;;;4968226;28;20054;-60
2022/10/16 03:54:14;;;;;;;5.93;4.53;;;23.10;47.80;;;;;;4969545;28;20487;-60
2022/10/16 03:56:41;;;;;;;5.07;4.53;;;23.00;47.70;;;;;;4969906;28;20050;-61
2022/10/16 03:59:08;;;;;;;6.47;4.35;;;23.00;47.70;;;;;;4976607;28;20406;-60
2022/10/16 04:01:35;;;;;;;4.30;3.88;;;23.00;47.70;;;;;;4978451;28;20499;-60
2022/10/16 04:04:02;;;;;;;5.28;4.00;;;23.00;47.70;;;;;;4977276;28;20046;-60
2022/10/16 04:06:29;;;;;;;4.88;4.22;;;23.00;47.80;;;;;;4970458;28;20411;-60
2022/10/16 04:08:56;;;;;;;4.75;4.20;;;23.00;47.80;;;;;;4969022;28;20055;-60
2022/10/16 04:11:23;;;;;;;5.25;4.50;;;23.00;47.80;;;;;;4968957;28;20487;-60
2022/10/16 04:13:50;;;;;;;5.18;4.43;;;23.00;47.80;;;;;;4968574;28;20054;-60
2022/10/16 04:16:17;;;;;;;6.05;4.53;;;23.00;47.80;;;;;;4969670;28;20058;-60
2022/10/16 04:18:44;;;;;;;5.22;4.03;;;23.00;47.80;;;;;;4967860;28;20077;-60
2022/10/16 04:21:11;;;;;;;4.68;3.80;;;23.00;47.80;;;;;;4964587;28;20050;-60
2022/10/16 04:23:38;;;;;;;4.80;4.25;;;23.00;47.70;;;;;;4969087;28;20054;-59
2022/10/16 04:26:05;;;;;;;7.32;4.90;;;23.00;47.70;;;;;;4968940;28;20061;-60
2022/10/16 04:28:32;;;;;;;6.10;4.20;;;23.00;47.70;;;;;;4968930;28;20050;-60
2022/10/16 04:31:00;;;;;;;5.13;4.38;;;23.00;47.70;;;;;;4970318;28;20072;-60
2022/10/16 04:33:27;;;;;;;4.82;4.15;;;23.00;47.70;;;;;;4972628;28;20057;-60
2022/10/16 04:35:59;;;;;;;4.82;4.28;;;23.00;47.70;;;;;;4972942;28;20150;-60
2022/10/16 04:38:26;;;;;;;5.50;4.68;;;23.00;47.60;;;;;;4972759;28;20050;-60
2022/10/16 04:40:53;;;;;;;6.13;4.13;;;23.00;47.40;;;;;;4972228;28;20077;-60
2022/10/16 04:43:20;;;;;;;4.97;4.43;;;23.00;47.40;;;;;;4972652;28;20043;-60
2022/10/16 04:45:50;;;;;;;6.28;4.80;;;23.00;47.30;;;;;;4972500;28;20125;-61
2022/10/16 04:48:17;;;;;;;6.20;4.53;;;23.00;47.30;;;;;;4972637;28;20053;-60
2022/10/16 04:50:44;;;;;;;5.32;4.47;;;23.00;47.20;;;;;;4972604;28;20058;-60
2022/10/16 04:53:12;;;;;;;4.68;4.10;;;23.00;47.20;;;;;;4967416;28;20495;-60
2022/10/16 04:55:41;;;;;;;6.22;4.80;;;23.00;47.20;;;;;;4971501;28;20061;-60
2022/10/16 04:58:08;;;;;;;5.45;4.72;;;22.90;47.20;;;;;;4971732;28;20050;-60
2022/10/16 05:00:35;;;;;;;6.47;5.18;;;23.00;47.30;;;;;;4971162;28;20056;-60
2022/10/16 05:03:05;;;;;;;6.88;4.53;;;22.90;47.20;;;;;;4971600;28;20066;-60
2022/10/16 05:05:33;;;;;;;4.85;4.32;;;22.90;47.10;;;;;;4972003;28;20051;-60
2022/10/16 05:08:00;;;;;;;5.15;4.65;;;22.90;47.10;;;;;;4972589;28;20050;-60
2022/10/16 05:10:27;;;;;;;4.47;4.07;;;22.90;47.00;;;;;;4971604;28;20047;-60
2022/10/16 05:12:54;;;;;;;5.60;4.63;;;22.90;47.00;;;;;;4972294;28;20058;-60
2022/10/16 05:15:24;;;;;;;4.97;4.45;;;22.90;46.90;;;;;;4972166;28;20051;-60
2022/10/16 05:17:55;;;;;;;6.43;4.60;;;22.90;46.90;;;;;;4972150;28;20050;-60
2022/10/16 05:20:22;;;;;;;5.20;4.70;;;22.90;47.40;;;;;;4971933;28;20511;-60
2022/10/16 05:22:50;;;;;;;5.90;4.72;;;22.90;46.80;;;;;;4971313;28;20057;-60
2022/10/16 05:25:17;;;;;;;5.70;4.63;;;22.90;46.80;;;;;;4967530;28;20139;-60
2022/10/16 05:27:48;;;;;;;6.28;5.10;;;22.90;46.70;;;;;;4971576;28;20047;-60
2022/10/16 05:30:17;;;;;;;5.57;4.70;;;22.90;46.60;;;;;;4971434;28;20051;-60
2022/10/16 05:32:48;;;;;;;6.47;4.50;;;22.90;46.60;;;;;;4972061;28;20050;-60
2022/10/16 05:35:16;;;;;;;5.32;4.82;;;22.90;46.50;;;;;;4970984;28;20511;-60
2022/10/16 05:37:43;;;;;;;5.10;4.28;;;22.90;46.50;;;;;;4970796;28;20427;-60
2022/10/16 05:40:12;;;;;;;5.88;4.68;;;22.90;46.40;;;;;;4971225;28;20510;-60
2022/10/16 05:42:41;;;;;;;5.80;4.65;;;22.90;46.40;;;;;;4970684;28;20484;-60
2022/10/16 05:45:11;;;;;;;4.75;4.25;;;22.90;46.30;;;;;;4971729;28;20050;-60
2022/10/16 05:47:39;;;;;;;5.80;5.20;;;22.90;46.30;;;;;;4970964;28;20388;-60
2022/10/16 05:50:06;;;;;;;5.30;4.55;;;22.90;46.20;;;;;;4971188;28;20199;-60
2022/10/16 05:52:34;;;;;;;6.50;5.03;;;22.90;46.20;;;;;;4971264;28;20050;-60
2022/10/16 05:55:01;;;;;;;5.78;4.53;;;22.90;46.10;;;;;;4971481;28;20066;-60
2022/10/16 05:57:28;;;;;;;9.63;4.90;;;22.90;46.10;;;;;;4965760;28;20054;-60
2022/10/16 05:59:55;;;;;;;5.50;4.90;;;23.00;46.10;;;;;;4970591;28;20066;-60
2022/10/16 06:02:22;;;;;;;5.28;4.18;;;23.00;46.00;;;;;;4971289;28;20047;-60
2022/10/16 06:04:51;;;;;;;6.72;5.15;;;23.00;46.00;;;;;;4970714;28;20055;-60
2022/10/16 06:07:18;;;;;;;4.95;4.45;;;22.90;45.90;;;;;;4971368;28;20058;-60
2022/10/16 06:09:49;;;;;;;5.82;5.05;;;22.90;45.80;;;;;;4970502;28;20053;-60
2022/10/16 06:12:16;;;;;;;4.95;4.45;;;22.90;45.80;;;;;;4970587;28;20059;-60
2022/10/16 06:14:44;;;;;;;7.15;4.63;;;23.00;45.80;;;;;;4971138;28;20047;-60
2022/10/16 06:17:12;;;;;;;6.43;5.20;;;23.00;45.80;;;;;;4970650;28;20055;-60
2022/10/16 06:19:39;;;;;;;7.50;5.30;;;23.00;45.70;;;;;;4970900;28;20042;-60
2022/10/16 06:22:06;;;;;;;5.78;4.70;;;23.00;45.70;;;;;;4970832;28;20054;-60
2022/10/16 06:24:33;;;;;;;7.15;5.28;;;23.00;45.60;;;;;;4970447;28;20068;-60
2022/10/16 06:27:00;;;;;;;6.30;5.07;;;23.00;45.60;;;;;;4971051;28;20363;-60
2022/10/16 06:29:27;;;;;;;6.22;4.95;;;23.00;45.50;;;;;;4965693;28;20331;-60
2022/10/16 06:31:54;;;;;;;6.00;5.03;;;23.10;45.50;;;;;;4971112;28;20060;-60
2022/10/16 06:34:22;;;;;;;6.47;5.63;;;23.00;45.40;;;;;;4970205;28;20048;-60
2022/10/16 06:36:49;;;;;;;6.57;5.20;;;23.10;45.40;;;;;;4969822;28;20061;-60
2022/10/16 06:39:16;;;;;;;8.90;5.07;;;23.10;45.40;;;;;;4970539;28;20054;-60
2022/10/16 06:41:43;;;;;;;7.05;5.72;;;23.10;45.40;;;;;;4969824;28;20058;-60
2022/10/16 06:44:10;;;;;;;6.72;5.80;;;23.10;45.30;;;;;;4970438;28;20055;-60
2022/10/16 06:46:37;;;;;;;8.93;6.30;;;23.10;45.30;;;;;;4970382;28;20272;-60
2022/10/16 06:49:04;;;;;;;8.95;6.13;;;23.20;45.30;;;;;;4970439;28;20078;-60
2022/10/16 06:51:33;;;;;;;6.20;5.53;;;23.10;45.20;;;;;;4970269;28;20508;-60
2022/10/16 06:54:04;;;;;;;8.35;6.40;;;23.20;45.20;;;;;;4969656;28;20055;-60
2022/10/16 06:56:33;;;;;;;7.05;5.90;;;23.20;45.20;;;;;;4970673;28;20060;-60
2022/10/16 06:59:00;;;;;;;9.13;6.60;;;23.20;45.20;;;;;;4968671;28;20065;-60
2022/10/16 07:01:28;;;;;;;8.63;6.05;;;23.20;45.10;;;;;;4965702;28;20046;-60
2022/10/16 07:03:55;;;;;;;8.55;6.20;;;23.20;45.10;;;;;;4968790;28;20051;-60
2022/10/16 07:06:24;;;;;;;11.30;7.30;;;23.30;45.10;;;;;;4969420;28;20411;-60
2022/10/16 07:08:52;;;;;;;10.23;6.32;;;23.30;45.10;;;;;;4969209;28;20047;-60
2022/10/16 07:11:22;;;;;;;9.20;6.88;;;23.30;45.00;;;;;;4969050;28;20051;-60
2022/10/16 07:13:50;;;;;;;8.10;6.28;;;23.30;45.00;;;;;;4969472;28;20043;-60
2022/10/16 07:16:24;;;;;;;10.80;6.65;;;23.30;45.00;;;;;;4969609;28;20058;-60
2022/10/16 07:18:57;;;;;;;10.25;7.55;;;23.30;45.00;;;;;;4969802;28;20054;-60
2022/10/16 07:21:27;;;;;;;8.95;6.82;;;23.30;44.90;;;;;;4969672;28;20051;-60
2022/10/16 07:23:59;;;;;;;9.90;6.07;;;23.40;44.90;;;;;;4969155;28;20051;-60
2022/10/16 07:26:27;;;;;;;9.75;6.85;;;23.40;44.90;;;;;;4968587;28;20054;-60
2022/10/16 07:28:54;;;;;;;10.05;6.63;;;23.40;44.80;;;;;;4968143;28;20046;-60
2022/10/16 07:31:22;;;;;;;8.80;6.28;;;23.40;44.80;;;;;;4969480;28;20057;-60
2022/10/16 07:33:50;;;;;;;10.02;7.32;;;23.40;44.80;;;;;;4964336;28;20078;-60
2022/10/16 07:36:18;;;;;;;12.35;7.22;;;23.40;44.80;;;;;;4968440;28;20370;-60
2022/10/16 07:38:45;;;;;;;9.85;6.80;;;23.40;44.70;;;;;;4969755;28;20403;-60
2022/10/16 07:41:16;;;;;;;10.90;7.60;;;23.50;44.80;;;;;;4969840;28;20054;-60
2022/10/16 07:43:47;;;;;;;8.27;6.55;;;23.50;44.70;;;;;;4968575;28;20415;-60
2022/10/16 07:46:16;;;;;;;9.15;7.22;;;23.50;44.70;;;;;;4969549;28;20054;-60
2022/10/16 07:48:46;;;;;;;8.82;6.18;;;23.50;44.70;;;;;;4969506;28;20058;-60
2022/10/16 07:51:22;;;;;;;12.43;7.50;;;23.60;44.70;;;;;;4969434;28;20487;-60
2022/10/16 07:53:49;;;;;;;10.65;7.43;;;23.60;44.70;;;;;;4969287;28;20550;-60
2022/10/16 07:56:17;;;;;;;11.20;7.85;;;23.60;44.70;;;;;;4969196;28;20055;-60
2022/10/16 07:58:45;;;;;;;8.57;6.78;;;23.60;44.70;;;;;;4969440;28;20062;-60
2022/10/16 08:01:14;;;;;;;7.30;6.47;;;23.60;44.60;;;;;;4969231;28;20046;-60
2022/10/16 08:03:43;;;;;;;10.50;7.87;;;23.60;44.70;;;;;;4968480;28;20146;-60
2022/10/16 08:06:10;;;;;;;9.23;7.15;;;23.60;44.60;;;;;;4966418;28;20303;-60
2022/10/16 08:08:37;;;;;;;8.77;6.60;;;23.70;44.60;;;;;;4972290;28;20660;-60
2022/10/16 08:11:05;;;;;;;9.48;6.85;;;23.70;44.60;;;;;;4973271;28;20050;-60
2022/10/16 08:13:32;;;;;;;10.50;7.57;;;23.70;44.60;;;;;;4972606;28;20054;-60
2022/10/16 08:15:59;;;;;;;11.35;7.78;;;23.70;44.60;;;;;;4972540;28;20086;-60
2022/10/16 08:18:26;;;;;;;10.25;7.32;;;23.70;44.60;;;;;;4972646;28;20070;-60
2022/10/16 08:20:58;;;;;;;9.45;7.40;;;23.70;44.60;;;;;;4971698;28;20479;-60
2022/10/16 08:23:26;;;;;;;9.65;7.28;;;23.70;44.60;;;;;;4972619;28;20047;-60
2022/10/16 08:25:54;;;;;;;9.93;7.55;;;23.70;45.10;;;;;;4972658;28;20058;-60
2022/10/16 08:28:22;;;;;;;9.00;7.25;;;23.80;44.60;;;;;;4971612;28;20054;-60
2022/10/16 08:30:50;;;;;;;8.85;6.78;;;23.80;44.60;;;;;;4972936;28;20053;-60
2022/10/16 08:33:17;;;;;;;9.25;6.60;;;23.80;44.60;;;;;;4972724;28;20134;-60
2022/10/16 08:35:52;;;;;;;17.83;7.60;;;23.90;44.70;;;;;;4972640;28;20054;-61
2022/10/16 08:38:19;;;;;;;10.05;7.38;;;23.90;44.60;;;;;;4967718;28;20051;-60
2022/10/16 08:40:47;;;;;;;11.05;7.32;;;23.90;44.60;;;;;;4972384;28;20065;-60
2022/10/16 08:43:47;;;;;;;9.50;7.15;;;23.90;44.60;;;;;;4972682;28;20121;-60
2022/10/16 08:46:54;;;;;;;10.95;7.07;;;23.90;44.60;;;;;;4972205;28;20476;-60
2022/10/16 08:49:24;;;;;;;8.52;7.18;;;23.90;44.60;;;;;;4971861;28;20046;-60
2022/10/16 08:51:51;;;;;;;10.93;7.90;;;24.00;44.60;;;;;;4972500;28;20467;-60
2022/10/16 08:54:42;;;;;;;12.20;7.95;;;24.00;44.60;;;;;;4972148;28;20054;-60
2022/10/16 08:57:15;;;;;;;;;;;24.00;44.60;;;;;;4972588;28;20488;-60
2022/10/16 08:59:50;;;;;;;8.75;7.53;;;24.00;44.60;;;;;;4971831;28;19922;-60
2022/10/16 09:02:26;;;;;;;8.95;6.70;;;24.10;44.60;;;;;;4971728;28;20073;-60
2022/10/16 09:05:22;;;;;;;10.93;7.75;;;24.10;44.60;;;;;;4972304;28;20047;-60
2022/10/16 09:08:05;;;;;;;10.70;8.38;;;24.10;44.60;;;;;;4971729;28;20491;-60
2022/10/16 09:11:04;;;;;;;10.68;8.18;;;24.10;44.60;;;;;;4966208;28;20051;-60
2022/10/16 09:13:47;;;;;;;11.63;7.78;;;24.20;44.60;;;;;;4971591;28;20039;-60
2022/10/16 09:16:39;;;;;;;9.27;7.50;;;24.20;44.60;;;;;;4970723;28;20554;-60
2022/10/16 09:19:30;;;;;;;12.02;8.13;;;24.20;44.60;;;;;;4971429;28;20051;-60
2022/10/16 09:22:02;;;;;;;8.90;8.00;;;24.30;44.70;;;;;;4971676;28;20062;-60
2022/10/16 09:24:30;;;;;;;11.68;8.25;;;24.30;44.70;;;;;;4971603;28;20508;-60
2022/10/16 09:26:57;;;;;;;8.35;7.43;;;24.20;44.60;;;;;;4972187;28;20051;-60
2022/10/16 09:29:24;;;;;;;13.55;9.02;;;24.30;44.60;;;;;;4972346;28;20055;-60
2022/10/16 09:31:54;;;;;;;11.55;8.25;;;24.30;44.20;;;;;;4971615;28;20414;-60
2022/10/16 09:34:34;;;;;;;10.40;7.70;;;24.30;44.60;;;;;;4972173;28;20051;-60
2022/10/16 09:37:05;;;;;;;11.68;8.43;;;24.30;44.60;;;;;;4971039;28;20289;-60
2022/10/16 09:39:54;;;;;;;12.18;8.60;;;24.30;44.60;;;;;;4971124;28;20499;-60
2022/10/16 09:42:31;;;;;;;9.32;7.68;;;24.30;44.60;;;;;;4966718;28;20051;-60
2022/10/16 09:44:58;;;;;;;11.13;8.40;;;24.30;44.60;;;;;;4971220;28;20055;-60
2022/10/16 09:47:28;;;;;;;11.07;7.53;;;24.40;44.70;;;;;;4971655;28;20046;-60
2022/10/16 09:50:21;;;;;;;12.45;8.77;;;24.40;44.70;;;;;;4970112;28;20054;-60
2022/10/16 09:52:48;;;;;;;11.70;8.88;;;24.40;44.70;;;;;;4971582;28;20069;-60
2022/10/16 09:55:18;;;;;;;13.82;8.18;;;24.40;44.70;;;;;;4971249;28;20339;-60
2022/10/16 09:57:52;;;;;;;10.45;7.88;;;24.40;44.70;;;;;;4971589;28;20055;-60
2022/10/16 10:00:21;;;;;;;11.15;7.80;;;24.50;44.70;;;;;;4971351;28;20407;-60
2022/10/16 10:02:48;;;;;;;10.55;7.80;;;24.50;44.70;;;;;;4971710;28;20140;-60
2022/10/16 10:05:25;;;;;;;8.85;7.88;;;24.50;44.70;;;;;;4970943;28;20050;-60
2022/10/16 10:07:58;;;;;;;11.40;8.43;;;24.50;44.70;;;;;;4970179;28;20051;-60
2022/10/16 10:10:27;;;;;;;9.38;7.82;;;24.50;44.60;;;;;;4970987;28;20043;-60
2022/10/16 10:12:56;;;;;;;8.98;7.80;;;24.50;44.60;;;;;;4969010;28;20535;-60
2022/10/16 10:15:24;;;;;;;10.57;7.70;;;24.50;44.60;;;;;;4967608;28;20054;-60
2022/10/16 10:17:54;;;;;;;11.65;8.68;;;24.60;44.70;;;;;;4970999;28;20086;-60
2022/10/16 10:20:33;;;;;;;12.87;8.57;;;24.60;44.70;;;;;;4970601;28;20443;-60
2022/10/16 10:23:18;;;;;;;8.85;7.68;;;24.60;44.60;;;;;;4970859;28;20773;-60
2022/10/16 10:26:10;;;;;;;11.02;8.52;;;24.60;44.70;;;;;;4970519;28;20047;-60
2022/10/16 10:29:04;;;;;;;9.48;8.25;;;24.60;45.30;;;;;;4969117;28;20055;-60
2022/10/16 10:32:03;;;;;;;9.95;8.18;;;24.60;44.60;;;;;;4970542;28;20050;-60
2022/10/16 10:35:05;;;;;;;9.27;7.30;;;24.60;44.60;;;;;;4970470;28;20502;-60
2022/10/16 10:37:48;;;;;;;9.85;8.25;;;24.70;44.70;;;;;;4949984;29;20047;-60
2022/10/16 10:40:39;;;;;;;13.27;9.05;;;24.70;44.70;;;;;;4950845;28;20397;-60
2022/10/16 10:43:28;;;;;;;9.68;8.20;;;24.70;44.70;;;;;;4950047;28;20051;-60
2022/10/16 10:46:02;;;;;;;8.63;7.80;;;24.70;44.70;;;;;;4946254;28;20055;-60
2022/10/16 10:49:09;;;;;;;11.82;8.73;;;24.70;44.70;;;;;;4951360;28;20055;-60
2022/10/16 10:51:57;;;;;;;13.30;8.43;;;24.70;44.70;;;;;;4950194;29;20046;-60
2022/10/16 10:55:04;;;;;;;13.35;9.27;;;24.70;44.70;;;;;;4950763;28;20047;-60
2022/10/16 10:58:06;;;;;;;12.05;9.40;;;24.70;44.70;;;;;;4939809;29;20047;-60
2022/10/16 11:01:02;;;;;;;9.85;8.63;;;24.80;44.70;;;;;;4950757;28;20488;-60
2022/10/16 11:04:08;;;;;;;11.93;9.30;;;24.80;44.70;;;;;;4950330;28;20048;-60
2022/10/16 11:06:59;;;;;;;11.35;8.65;;;24.80;44.70;;;;;;4958768;28;20058;-60
2022/10/16 11:09:33;;;;;;;9.80;7.97;;;24.80;44.70;;;;;;4970048;28;20271;-60
2022/10/16 11:12:18;;;;;;;10.85;9.13;;;24.80;44.60;;;;;;4970085;28;20411;-60
2022/10/16 11:15:07;;;;;;;12.98;9.98;;;24.80;44.60;;;;;;4969829;28;20043;-60
2022/10/16 11:17:40;;;;;;;11.45;8.98;;;24.90;44.60;;;;;;4965307;28;20400;-60
2022/10/16 11:20:17;;;;;;;12.60;10.02;;;24.90;44.60;;;;;;4969041;28;20267;-60
2022/10/16 11:22:54;;;;;;;11.32;8.40;;;24.90;44.60;;;;;;4969689;28;20050;-60
2022/10/16 11:25:31;;;;;;;10.45;9.18;;;24.90;44.50;;;;;;4968531;28;20484;-60
2022/10/16 11:28:25;;;;;;;10.55;9.23;;;24.90;44.40;;;;;;4969815;28;20050;-60
2022/10/16 11:31:07;;;;;;;11.77;9.40;;;24.90;44.40;;;;;;4969777;28;20058;-60
2022/10/16 11:34:03;;;;;;;10.60;9.05;;;25.00;44.40;;;;;;4969600;28;20765;-60
2022/10/16 11:36:46;;;;;;;11.65;9.32;;;25.00;44.40;;;;;;4969484;28;20051;-60
2022/10/16 11:39:22;;;;;;;14.48;9.63;;;25.00;44.90;;;;;;4984801;28;20058;-60
2022/10/16 11:41:55;;;;;;;12.70;10.43;;;25.00;44.30;;;;;;4968261;28;20057;-60
2022/10/16 11:44:42;;;;;;;11.45;9.98;;;25.00;44.30;;;;;;4970229;28;20051;-60
2022/10/16 11:47:42;;;;;;;12.48;10.35;;;25.00;44.20;;;;;;4969739;28;20402;-60
2022/10/16 11:50:54;;;;;;;12.88;9.90;;;25.10;44.30;;;;;;4964238;28;20500;-60
2022/10/16 11:53:53;;;;;;;12.82;10.10;;;25.10;44.30;;;;;;4968904;28;20047;-60
2022/10/16 11:56:21;;;;;;;16.05;9.23;;;25.10;44.30;;;;;;4968934;28;20058;-60
2022/10/16 11:59:17;;;;;;;12.25;9.93;;;25.10;44.20;;;;;;4969506;28;20113;-60
2022/10/16 12:01:53;;;;;;;13.18;10.15;;;25.10;44.20;;;;;;4969264;28;20506;-60
2022/10/16 12:04:34;;;;;;;11.18;9.65;;;25.10;44.20;;;;;;4969215;28;20051;-60
2022/10/16 12:07:10;;;;;;;12.07;9.80;;;25.10;44.80;;;;;;4967528;28;20055;-60
2022/10/16 12:09:39;;;;;;;12.20;9.88;;;25.10;44.20;;;;;;4968792;28;20076;-60
2022/10/16 12:12:36;;;;;;;11.43;9.97;;;25.10;44.20;;;;;;4968350;28;20058;-60
2022/10/16 12:15:29;;;;;;;12.93;10.48;;;25.10;44.20;;;;;;4969425;28;20137;-60
2022/10/16 12:18:24;;;;;;;12.20;9.93;;;25.10;44.20;;;;;;4967914;28;20054;-60
2022/10/16 12:21:04;;;;;;;13.00;10.77;;;25.10;44.20;;;;;;4967699;28;20050;-60
2022/10/16 12:23:33;;;;;;;13.95;10.43;;;25.10;44.20;;;;;;4964895;28;20061;-60
2022/10/16 12:26:02;;;;;;;13.60;10.43;;;25.10;44.10;;;;;;4969214;28;20056;-60
2022/10/16 12:28:31;;;;;;;11.67;10.30;;;25.10;44.10;;;;;;4969343;28;20446;-60
2022/10/16 12:31:05;;;;;;;11.25;10.05;;;25.10;44.10;;;;;;4968890;28;20366;-60
2022/10/16 12:33:35;;;;;;;13.25;9.98;;;25.10;44.10;;;;;;4968717;28;20510;-60
2022/10/16 12:36:07;;;;;;;13.02;10.63;;;25.10;44.00;;;;;;4968743;28;20050;-60
2022/10/16 12:38:47;;;;;;;11.93;10.13;;;25.20;44.10;;;;;;4969017;28;20190;-60
2022/10/16 12:41:26;;;;;;;12.40;9.77;;;25.10;44.00;;;;;;4968905;28;20057;-60
2022/10/16 12:43:54;;;;;;;11.95;10.27;;;25.20;44.00;;;;;;4969059;28;20051;-60
2022/10/16 12:46:38;;;;;;;12.57;10.57;;;25.20;44.00;;;;;;4969146;28;20055;-60
2022/10/16 12:49:24;;;;;;;13.85;10.57;;;25.20;43.90;;;;;;4968559;28;20059;-60
2022/10/16 12:51:51;;;;;;;18.27;10.43;;;25.20;43.90;;;;;;4970405;28;20061;-60
2022/10/16 12:54:35;;;;;;;12.73;10.85;;;25.20;43.90;;;;;;4982192;28;20540;-60
2022/10/16 12:57:42;;;;;;;11.80;10.10;;;25.20;43.90;;;;;;4972827;28;20054;-60
2022/10/16 13:00:28;;;;;;;14.38;11.02;;;25.20;43.90;;;;;;4971907;28;20427;-60
2022/10/16 13:03:35;;;;;;;12.57;10.98;;;25.20;44.00;;;;;;4971289;28;20113;-60
2022/10/16 13:06:40;;;;;;;12.45;10.20;;;25.20;44.00;;;;;;4972253;28;20043;-60
2022/10/16 13:09:43;;;;;;;14.52;11.13;;;25.20;44.00;;;;;;4972196;28;20053;-60
2022/10/16 13:12:30;;;;;;;15.30;11.02;;;25.20;44.00;;;;;;4971720;28;20487;-60
2022/10/16 13:15:36;;;;;;;14.68;11.70;;;25.20;44.00;;;;;;4972361;28;20410;-60
2022/10/16 13:18:19;;;;;;;13.50;11.35;;;25.20;44.00;;;;;;4970943;28;20051;-60